sensor_id;sensor_type;location;lat;lon;timestamp;pressure;altitude;pressure_sealevel;temperature;humidity
42725;BME280;28369;44.046;23.014;2023-05-31T00:00:12;101135.28;;;30.37;41.09
42725;BME280;28369;44.046;23.014;2023-05-31T00:02:37;101121.03;;;29.91;41.81
42725;BME280;28369;44.046;23.014;2023-05-31T00:05:03;101116.41;;;29.57;42.43
42725;BME280;28369;44.046;23.014;2023-05-31T00:07:28;101088.81;;;29.43;42.36
42725;BME280;28369;44.046;23.014;2023-05-31T00:09:54;101116.34;;;28.71;43.94
42725;BME280;28369;44.046;23.014;2023-05-31T00:12:19;101107.41;;;28.70;43.87
42725;BME280;28369;44.046;23.014;2023-05-31T00:14:46;101129.25;;;28.81;44.18
42725;BME280;28369;44.046;23.014;2023-05-31T00:17:12;101101.59;;;28.02;45.30
42725;BME280;28369;44.046;23.014;2023-05-31T00:19:38;101131.03;;;28.39;45.00
42725;BME280;28369;44.046;23.014;2023-05-31T00:22:04;101106.72;;;28.27;44.75
42725;BME280;28369;44.046;23.014;2023-05-31T00:24:31;101109.09;;;28.00;45.56
42725;BME280;28369;44.046;23.014;2023-05-31T00:26:57;101100.16;;;28.23;45.56
42725;BME280;28369;44.046;23.014;2023-05-31T00:29:25;101128.25;;;28.70;44.01
42725;BME280;28369;44.046;23.014;2023-05-31T00:31:51;101039.53;;;28.19;43.84
42725;BME280;28369;44.046;23.014;2023-05-31T00:34:16;101099.22;;;28.18;45.54
42725;BME280;28369;44.046;23.014;2023-05-31T00:36:42;101080.31;;;28.30;44.77
42725;BME280;28369;44.046;23.014;2023-05-31T00:39:08;101114.69;;;28.82;44.18
42725;BME280;28369;44.046;23.014;2023-05-31T00:41:33;101123.59;;;28.94;43.98
42725;BME280;28369;44.046;23.014;2023-05-31T00:43:58;101110.00;;;28.65;44.62
42725;BME280;28369;44.046;23.014;2023-05-31T00:46:30;101116.81;;;28.79;44.34
42725;BME280;28369;44.046;23.014;2023-05-31T00:48:57;101036.19;;;28.53;43.87
42725;BME280;28369;44.046;23.014;2023-05-31T00:51:24;101134.53;;;29.28;43.69
42725;BME280;28369;44.046;23.014;2023-05-31T00:53:51;101107.25;;;29.18;43.55
42725;BME280;28369;44.046;23.014;2023-05-31T00:56:18;101141.72;;;29.34;43.52
42725;BME280;28369;44.046;23.014;2023-05-31T00:58:44;101129.63;;;29.25;42.96
42725;BME280;28369;44.046;23.014;2023-05-31T01:01:18;101100.41;;;28.98;43.17
42725;BME280;28369;44.046;23.014;2023-05-31T01:03:43;101111.53;;;28.73;44.72
42725;BME280;28369;44.046;23.014;2023-05-31T01:06:10;101142.69;;;28.52;45.13
42725;BME280;28369;44.046;23.014;2023-05-31T01:08:36;101044.66;;;27.73;45.57
42725;BME280;28369;44.046;23.014;2023-05-31T01:11:12;101135.19;;;28.18;45.37
42725;BME280;28369;44.046;23.014;2023-05-31T01:13:48;101127.06;;;28.30;45.29
42725;BME280;28369;44.046;23.014;2023-05-31T01:16:32;101123.19;;;28.50;44.61
42725;BME280;28369;44.046;23.014;2023-05-31T01:19:04;101141.31;;;29.02;43.63
42725;BME280;28369;44.046;23.014;2023-05-31T01:21:48;101108.13;;;29.06;43.20
42725;BME280;28369;44.046;23.014;2023-05-31T01:24:45;101149.25;;;29.32;43.10
42725;BME280;28369;44.046;23.014;2023-05-31T01:27:17;101136.41;;;28.99;43.14
42725;BME280;28369;44.046;23.014;2023-05-31T01:29:43;101157.03;;;29.28;42.67
42725;BME280;28369;44.046;23.014;2023-05-31T01:32:10;101145.28;;;29.23;42.65
42725;BME280;28369;44.046;23.014;2023-05-31T01:34:38;101051.69;;;28.57;43.41
42725;BME280;28369;44.046;23.014;2023-05-31T01:37:04;101139.25;;;29.21;43.17
42725;BME280;28369;44.046;23.014;2023-05-31T01:39:30;101075.94;;;28.64;43.11
42725;BME280;28369;44.046;23.014;2023-05-31T01:41:56;101175.41;;;29.26;43.13
42725;BME280;28369;44.046;23.014;2023-05-31T01:44:21;101136.19;;;28.88;43.39
42725;BME280;28369;44.046;23.014;2023-05-31T01:46:48;101163.94;;;28.84;43.34
42725;BME280;28369;44.046;23.014;2023-05-31T01:49:14;101151.34;;;28.89;42.91
42725;BME280;28369;44.046;23.014;2023-05-31T01:51:40;101156.56;;;28.79;42.90
42725;BME280;28369;44.046;23.014;2023-05-31T01:54:07;101159.13;;;28.86;42.72
42725;BME280;28369;44.046;23.014;2023-05-31T01:56:33;101145.72;;;28.79;42.77
42725;BME280;28369;44.046;23.014;2023-05-31T01:58:59;101159.63;;;28.83;43.17
42725;BME280;28369;44.046;23.014;2023-05-31T02:01:25;101157.00;;;28.88;42.66
42725;BME280;28369;44.046;23.014;2023-05-31T02:03:51;101154.75;;;28.96;42.71
42725;BME280;28369;44.046;23.014;2023-05-31T02:06:17;101168.06;;;28.98;42.90
42725;BME280;28369;44.046;23.014;2023-05-31T02:08:43;101119.53;;;28.56;43.19
42725;BME280;28369;44.046;23.014;2023-05-31T02:11:08;101160.66;;;28.82;42.94
42725;BME280;28369;44.046;23.014;2023-05-31T02:13:34;101160.34;;;28.66;42.96
42725;BME280;28369;44.046;23.014;2023-05-31T02:16:00;101169.16;;;28.85;42.76
42725;BME280;28369;44.046;23.014;2023-05-31T02:18:26;101142.22;;;28.78;42.63
42725;BME280;28369;44.046;23.014;2023-05-31T02:20:53;101152.69;;;28.87;42.25
42725;BME280;28369;44.046;23.014;2023-05-31T02:23:19;101139.53;;;28.67;42.36
42725;BME280;28369;44.046;23.014;2023-05-31T02:25:46;101160.00;;;28.63;42.83
42725;BME280;28369;44.046;23.014;2023-05-31T02:28:12;101167.88;;;28.64;42.67
42725;BME280;28369;44.046;23.014;2023-05-31T02:30:37;101167.38;;;28.55;43.06
42725;BME280;28369;44.046;23.014;2023-05-31T02:33:03;101081.72;;;28.08;42.84
42725;BME280;28369;44.046;23.014;2023-05-31T02:35:29;101165.50;;;28.79;42.29
42725;BME280;28369;44.046;23.014;2023-05-31T02:37:55;101169.97;;;28.62;42.31
42725;BME280;28369;44.046;23.014;2023-05-31T02:40:21;101193.25;;;28.87;41.89
42725;BME280;28369;44.046;23.014;2023-05-31T02:42:47;101165.00;;;28.94;41.62
42725;BME280;28369;44.046;23.014;2023-05-31T02:45:12;101169.16;;;28.85;42.03
42725;BME280;28369;44.046;23.014;2023-05-31T02:47:38;101184.81;;;29.12;41.84
42725;BME280;28369;44.046;23.014;2023-05-31T02:50:08;101195.78;;;29.17;41.62
42725;BME280;28369;44.046;23.014;2023-05-31T02:52:35;101183.34;;;29.04;41.78
42725;BME280;28369;44.046;23.014;2023-05-31T02:55:01;101161.72;;;28.81;41.87
42725;BME280;28369;44.046;23.014;2023-05-31T02:57:26;101161.97;;;28.91;41.86
42725;BME280;28369;44.046;23.014;2023-05-31T02:59:56;101141.00;;;28.98;41.60
42725;BME280;28369;44.046;23.014;2023-05-31T03:02:22;101162.16;;;29.01;41.43
42725;BME280;28369;44.046;23.014;2023-05-31T03:04:47;101175.59;;;28.84;42.17
42725;BME280;28369;44.046;23.014;2023-05-31T03:07:13;101186.72;;;29.11;41.54
42725;BME280;28369;44.046;23.014;2023-05-31T03:09:39;101190.13;;;29.19;41.19
42725;BME280;28369;44.046;23.014;2023-05-31T03:12:05;101170.81;;;29.15;40.85
42725;BME280;28369;44.046;23.014;2023-05-31T03:14:30;101198.19;;;29.42;40.92
42725;BME280;28369;44.046;23.014;2023-05-31T03:16:56;101209.91;;;29.07;41.35
42725;BME280;28369;44.046;23.014;2023-05-31T03:19:22;101192.97;;;29.00;41.50
42725;BME280;28369;44.046;23.014;2023-05-31T03:21:48;101218.47;;;29.28;41.30
42725;BME280;28369;44.046;23.014;2023-05-31T03:24:13;101210.84;;;29.13;41.97
42725;BME280;28369;44.046;23.014;2023-05-31T03:26:39;101092.47;;;28.56;41.80
42725;BME280;28369;44.046;23.014;2023-05-31T03:29:04;101191.09;;;29.01;42.69
42725;BME280;28369;44.046;23.014;2023-05-31T03:31:30;101214.97;;;28.21;44.90
42725;BME280;28369;44.046;23.014;2023-05-31T03:33:55;101195.22;;;27.29;45.97
42725;BME280;28369;44.046;23.014;2023-05-31T03:36:21;101217.28;;;27.07;47.38
42725;BME280;28369;44.046;23.014;2023-05-31T03:38:47;101201.69;;;27.10;46.71
42725;BME280;28369;44.046;23.014;2023-05-31T03:41:12;101197.13;;;26.66;47.87
42725;BME280;28369;44.046;23.014;2023-05-31T03:43:38;101217.81;;;27.84;45.69
42725;BME280;28369;44.046;23.014;2023-05-31T03:46:03;101227.94;;;28.54;44.70
42725;BME280;28369;44.046;23.014;2023-05-31T03:48:29;101233.91;;;29.56;42.83
42725;BME280;28369;44.046;23.014;2023-05-31T03:50:56;101216.72;;;30.42;41.01
42725;BME280;28369;44.046;23.014;2023-05-31T03:53:22;101234.00;;;30.92;39.84
42725;BME280;28369;44.046;23.014;2023-05-31T03:55:47;101237.63;;;31.64;38.61
42725;BME280;28369;44.046;23.014;2023-05-31T03:58:13;101236.41;;;32.37;37.24
42725;BME280;28369;44.046;23.014;2023-05-31T04:00:38;101247.34;;;32.47;37.07
42725;BME280;28369;44.046;23.014;2023-05-31T04:03:04;101195.09;;;32.93;36.00
42725;BME280;28369;44.046;23.014;2023-05-31T04:05:29;101246.34;;;33.80;34.95
42725;BME280;28369;44.046;23.014;2023-05-31T04:07:55;101228.34;;;34.20;33.98
42725;BME280;28369;44.046;23.014;2023-05-31T04:10:20;101245.22;;;34.79;33.83
42725;BME280;28369;44.046;23.014;2023-05-31T04:12:45;101254.06;;;35.26;32.84
42725;BME280;28369;44.046;23.014;2023-05-31T04:15:11;101252.66;;;35.34;32.85
42725;BME280;28369;44.046;23.014;2023-05-31T04:17:36;101255.47;;;35.68;32.28
42725;BME280;28369;44.046;23.014;2023-05-31T04:20:02;101279.38;;;35.97;31.80
42725;BME280;28369;44.046;23.014;2023-05-31T04:22:33;101269.75;;;36.39;31.45
42725;BME280;28369;44.046;23.014;2023-05-31T04:24:58;101292.31;;;36.55;31.17
42725;BME280;28369;44.046;23.014;2023-05-31T04:27:24;101267.78;;;36.45;30.60
42725;BME280;28369;44.046;23.014;2023-05-31T04:29:51;101271.22;;;36.85;30.20
42725;BME280;28369;44.046;23.014;2023-05-31T04:32:16;101260.03;;;37.06;29.87
42725;BME280;28369;44.046;23.014;2023-05-31T04:34:42;101250.50;;;36.74;30.02
42725;BME280;28369;44.046;23.014;2023-05-31T04:37:08;101263.25;;;37.51;29.96
42725;BME280;28369;44.046;23.014;2023-05-31T04:39:34;101238.34;;;37.66;29.22
42725;BME280;28369;44.046;23.014;2023-05-31T04:42:00;101286.59;;;37.48;29.38
42725;BME280;28369;44.046;23.014;2023-05-31T04:44:25;101286.22;;;37.12;30.29
42725;BME280;28369;44.046;23.014;2023-05-31T04:46:51;101282.91;;;37.96;29.45
42725;BME280;28369;44.046;23.014;2023-05-31T04:49:17;101276.38;;;38.58;28.57
42725;BME280;28369;44.046;23.014;2023-05-31T04:51:44;101291.50;;;38.42;28.68
42725;BME280;28369;44.046;23.014;2023-05-31T04:54:10;101289.94;;;38.82;28.72
42725;BME280;28369;44.046;23.014;2023-05-31T04:56:35;101287.94;;;37.08;29.88
42725;BME280;28369;44.046;23.014;2023-05-31T04:59:01;101260.88;;;37.01;29.87
42725;BME280;28369;44.046;23.014;2023-05-31T05:01:27;101297.66;;;37.62;29.58
42725;BME280;28369;44.046;23.014;2023-05-31T05:03:53;101288.84;;;38.97;28.25
42725;BME280;28369;44.046;23.014;2023-05-31T05:06:18;101292.69;;;39.74;27.15
42725;BME280;28369;44.046;23.014;2023-05-31T05:08:45;101202.06;;;38.08;28.26
42725;BME280;28369;44.046;23.014;2023-05-31T05:11:11;101288.75;;;37.70;29.59
42725;BME280;28369;44.046;23.014;2023-05-31T05:13:37;101296.28;;;39.61;27.74
42725;BME280;28369;44.046;23.014;2023-05-31T05:16:03;101307.00;;;40.53;26.97
42725;BME280;28369;44.046;23.014;2023-05-31T05:18:29;101258.56;;;39.11;28.26
42725;BME280;28369;44.046;23.014;2023-05-31T05:20:55;101305.06;;;40.54;27.09
42725;BME280;28369;44.046;23.014;2023-05-31T05:23:22;101301.06;;;41.00;25.90
42725;BME280;28369;44.046;23.014;2023-05-31T05:25:48;101308.38;;;40.65;26.45
42725;BME280;28369;44.046;23.014;2023-05-31T05:28:13;101302.44;;;41.47;25.94
42725;BME280;28369;44.046;23.014;2023-05-31T05:30:39;101319.66;;;41.43;25.75
42725;BME280;28369;44.046;23.014;2023-05-31T05:33:04;101307.81;;;41.95;25.56
42725;BME280;28369;44.046;23.014;2023-05-31T05:35:30;101286.56;;;41.96;25.28
42725;BME280;28369;44.046;23.014;2023-05-31T05:37:55;101317.69;;;42.23;24.29
42725;BME280;28369;44.046;23.014;2023-05-31T05:40:23;101296.44;;;41.97;23.82
42725;BME280;28369;44.046;23.014;2023-05-31T05:42:49;101280.88;;;41.84;24.30
42725;BME280;28369;44.046;23.014;2023-05-31T05:45:15;101238.34;;;41.58;24.34
42725;BME280;28369;44.046;23.014;2023-05-31T05:47:41;101312.38;;;42.00;24.98
42725;BME280;28369;44.046;23.014;2023-05-31T05:50:11;101325.94;;;42.49;24.50
42725;BME280;28369;44.046;23.014;2023-05-31T05:52:37;101286.22;;;42.06;24.29
42725;BME280;28369;44.046;23.014;2023-05-31T05:55:03;101303.72;;;42.28;25.09
42725;BME280;28369;44.046;23.014;2023-05-31T05:57:29;101307.47;;;41.36;25.26
42725;BME280;28369;44.046;23.014;2023-05-31T05:59:58;101296.13;;;41.90;24.88
42725;BME280;28369;44.046;23.014;2023-05-31T06:02:23;101329.47;;;40.24;26.77
42725;BME280;28369;44.046;23.014;2023-05-31T06:04:49;101293.69;;;38.72;28.73
42725;BME280;28369;44.046;23.014;2023-05-31T06:07:16;101308.47;;;38.11;29.16
42725;BME280;28369;44.046;23.014;2023-05-31T06:09:42;101340.53;;;37.77;30.21
42725;BME280;28369;44.046;23.014;2023-05-31T06:12:08;101296.66;;;37.77;30.37
42725;BME280;28369;44.046;23.014;2023-05-31T06:14:34;101284.94;;;37.28;30.01
42725;BME280;28369;44.046;23.014;2023-05-31T06:16:59;101300.44;;;37.14;30.44
42725;BME280;28369;44.046;23.014;2023-05-31T06:19:25;101290.00;;;36.38;31.37
42725;BME280;28369;44.046;23.014;2023-05-31T06:21:51;101324.66;;;35.63;32.61
42725;BME280;28369;44.046;23.014;2023-05-31T06:24:19;101238.41;;;35.47;33.53
42725;BME280;28369;44.046;23.014;2023-05-31T06:26:45;101296.50;;;36.13;32.43
42725;BME280;28369;44.046;23.014;2023-05-31T06:29:10;101319.63;;;36.60;32.26
42725;BME280;28369;44.046;23.014;2023-05-31T06:31:36;101323.88;;;36.47;31.93
42725;BME280;28369;44.046;23.014;2023-05-31T06:34:01;101320.06;;;36.04;32.44
42725;BME280;28369;44.046;23.014;2023-05-31T06:36:28;101298.50;;;36.37;32.11
42725;BME280;28369;44.046;23.014;2023-05-31T06:38:54;101297.50;;;37.10;30.80
42725;BME280;28369;44.046;23.014;2023-05-31T06:41:20;101308.63;;;37.19;31.15
42725;BME280;28369;44.046;23.014;2023-05-31T06:43:45;101317.09;;;36.98;31.67
42725;BME280;28369;44.046;23.014;2023-05-31T06:46:11;101316.59;;;37.15;30.88
42725;BME280;28369;44.046;23.014;2023-05-31T06:48:37;101231.31;;;36.49;32.23
42725;BME280;28369;44.046;23.014;2023-05-31T06:51:03;101204.84;;;36.10;31.85
42725;BME280;28369;44.046;23.014;2023-05-31T06:53:28;101302.22;;;37.29;31.53
42725;BME280;28369;44.046;23.014;2023-05-31T06:55:54;101306.97;;;37.18;30.62
42725;BME280;28369;44.046;23.014;2023-05-31T06:58:19;101269.03;;;37.30;30.66
42725;BME280;28369;44.046;23.014;2023-05-31T07:00:45;101314.41;;;37.80;30.42
42725;BME280;28369;44.046;23.014;2023-05-31T07:03:10;101337.69;;;37.82;31.20
42725;BME280;28369;44.046;23.014;2023-05-31T07:05:36;101329.03;;;37.94;30.66
42725;BME280;28369;44.046;23.014;2023-05-31T07:08:01;101312.63;;;37.70;30.78
42725;BME280;28369;44.046;23.014;2023-05-31T07:10:27;101337.25;;;37.75;30.33
42725;BME280;28369;44.046;23.014;2023-05-31T07:12:53;101285.41;;;37.35;30.25
42725;BME280;28369;44.046;23.014;2023-05-31T07:15:19;101290.47;;;37.47;29.67
42725;BME280;28369;44.046;23.014;2023-05-31T07:17:44;101322.13;;;37.78;29.62
42725;BME280;28369;44.046;23.014;2023-05-31T07:20:10;101312.91;;;37.49;29.90
42725;BME280;28369;44.046;23.014;2023-05-31T07:22:37;101280.53;;;37.90;30.79
42725;BME280;28369;44.046;23.014;2023-05-31T07:25:03;101324.25;;;38.19;30.60
42725;BME280;28369;44.046;23.014;2023-05-31T07:27:30;101308.25;;;38.26;29.85
42725;BME280;28369;44.046;23.014;2023-05-31T07:29:56;101320.50;;;38.48;28.91
42725;BME280;28369;44.046;23.014;2023-05-31T07:32:21;101303.09;;;38.38;29.42
42725;BME280;28369;44.046;23.014;2023-05-31T07:34:47;101321.53;;;38.52;29.83
42725;BME280;28369;44.046;23.014;2023-05-31T07:37:12;101313.03;;;38.67;29.99
42725;BME280;28369;44.046;23.014;2023-05-31T07:39:38;101320.84;;;38.60;30.01
42725;BME280;28369;44.046;23.014;2023-05-31T07:42:03;101313.03;;;38.95;30.19
42725;BME280;28369;44.046;23.014;2023-05-31T07:44:29;101320.88;;;39.02;30.12
42725;BME280;28369;44.046;23.014;2023-05-31T07:46:55;101302.44;;;39.02;28.23
42725;BME280;28369;44.046;23.014;2023-05-31T07:49:20;101283.50;;;38.59;28.86
42725;BME280;28369;44.046;23.014;2023-05-31T07:51:46;101294.88;;;38.66;30.34
42725;BME280;28369;44.046;23.014;2023-05-31T07:54:11;101291.50;;;38.55;29.29
42725;BME280;28369;44.046;23.014;2023-05-31T07:56:37;101335.94;;;39.32;29.74
42725;BME280;28369;44.046;23.014;2023-05-31T07:59:02;101304.78;;;39.37;28.03
42725;BME280;28369;44.046;23.014;2023-05-31T08:01:28;101183.69;;;38.50;28.22
42725;BME280;28369;44.046;23.014;2023-05-31T08:03:54;101222.06;;;38.97;28.24
42725;BME280;28369;44.046;23.014;2023-05-31T08:06:20;101308.31;;;39.51;29.18
42725;BME280;28369;44.046;23.014;2023-05-31T08:08:45;101291.41;;;39.58;28.82
42725;BME280;28369;44.046;23.014;2023-05-31T08:11:11;101292.56;;;39.80;28.26
42725;BME280;28369;44.046;23.014;2023-05-31T08:13:38;101292.59;;;40.02;27.50
42725;BME280;28369;44.046;23.014;2023-05-31T08:16:04;101298.69;;;39.99;27.77
42725;BME280;28369;44.046;23.014;2023-05-31T08:18:30;101297.34;;;39.37;28.19
42725;BME280;28369;44.046;23.014;2023-05-31T08:20:55;101284.22;;;39.34;28.04
42725;BME280;28369;44.046;23.014;2023-05-31T08:23:21;101305.59;;;39.37;28.62
42725;BME280;28369;44.046;23.014;2023-05-31T08:25:47;101251.78;;;39.09;29.02
42725;BME280;28369;44.046;23.014;2023-05-31T08:28:13;101304.69;;;39.42;28.54
42725;BME280;28369;44.046;23.014;2023-05-31T08:30:39;101239.25;;;39.16;28.18
42725;BME280;28369;44.046;23.014;2023-05-31T08:33:05;101295.94;;;39.40;27.94
42725;BME280;28369;44.046;23.014;2023-05-31T08:35:30;101306.56;;;39.55;27.89
42725;BME280;28369;44.046;23.014;2023-05-31T08:37:57;101283.22;;;39.67;28.58
42725;BME280;28369;44.046;23.014;2023-05-31T08:40:23;101264.19;;;39.70;27.69
42725;BME280;28369;44.046;23.014;2023-05-31T08:42:58;101281.81;;;39.92;28.40
42725;BME280;28369;44.046;23.014;2023-05-31T08:45:26;101238.28;;;39.35;29.19
42725;BME280;28369;44.046;23.014;2023-05-31T08:48:40;101273.25;;;40.16;27.69
42725;BME280;28369;44.046;23.014;2023-05-31T08:51:08;101286.78;;;40.35;28.04
42725;BME280;28369;44.046;23.014;2023-05-31T08:53:34;101215.00;;;39.55;28.99
42725;BME280;28369;44.046;23.014;2023-05-31T08:56:01;101288.75;;;40.66;26.33
42725;BME280;28369;44.046;23.014;2023-05-31T08:58:28;101285.66;;;40.59;26.39
42725;BME280;28369;44.046;23.014;2023-05-31T09:00:55;101279.13;;;40.23;26.69
42725;BME280;28369;44.046;23.014;2023-05-31T09:03:22;101276.28;;;40.06;27.07
42725;BME280;28369;44.046;23.014;2023-05-31T09:05:47;101278.00;;;40.47;26.00
42725;BME280;28369;44.046;23.014;2023-05-31T09:08:13;101258.19;;;40.45;26.21
42725;BME280;28369;44.046;23.014;2023-05-31T09:10:40;101264.97;;;40.70;26.80
42725;BME280;28369;44.046;23.014;2023-05-31T09:13:06;101280.91;;;40.91;25.90
42725;BME280;28369;44.046;23.014;2023-05-31T09:15:32;101274.97;;;40.57;26.08
42725;BME280;28369;44.046;23.014;2023-05-31T09:18:15;101268.22;;;40.90;26.73
42725;BME280;28369;44.046;23.014;2023-05-31T09:20:41;101186.72;;;40.89;26.45
42725;BME280;28369;44.046;23.014;2023-05-31T09:23:08;101239.88;;;40.89;25.69
42725;BME280;28369;44.046;23.014;2023-05-31T09:25:54;101286.47;;;41.08;25.58
42725;BME280;28369;44.046;23.014;2023-05-31T09:28:21;101261.19;;;41.15;25.33
42725;BME280;28369;44.046;23.014;2023-05-31T09:31:01;101264.81;;;41.68;25.68
42725;BME280;28369;44.046;23.014;2023-05-31T09:33:40;101249.44;;;40.12;26.49
42725;BME280;28369;44.046;23.014;2023-05-31T09:36:06;101238.06;;;40.36;26.20
42725;BME280;28369;44.046;23.014;2023-05-31T09:38:35;101277.03;;;40.92;25.63
42725;BME280;28369;44.046;23.014;2023-05-31T09:41:12;101263.13;;;40.66;25.97
42725;BME280;28369;44.046;23.014;2023-05-31T09:43:43;101157.31;;;40.18;26.30
42725;BME280;28369;44.046;23.014;2023-05-31T09:46:13;101261.09;;;41.38;24.78
42725;BME280;28369;44.046;23.014;2023-05-31T09:48:39;101232.81;;;41.67;25.94
42725;BME280;28369;44.046;23.014;2023-05-31T09:51:08;101227.63;;;41.57;25.87
42725;BME280;28369;44.046;23.014;2023-05-31T09:53:42;101229.44;;;41.53;25.59
42725;BME280;28369;44.046;23.014;2023-05-31T09:56:17;101234.81;;;41.40;25.53
42725;BME280;28369;44.046;23.014;2023-05-31T09:58:43;101231.31;;;40.91;25.80
42725;BME280;28369;44.046;23.014;2023-05-31T10:01:09;101218.38;;;41.09;25.31
42725;BME280;28369;44.046;23.014;2023-05-31T10:03:35;101219.22;;;41.53;26.17
42725;BME280;28369;44.046;23.014;2023-05-31T10:06:02;101196.16;;;39.62;27.15
42725;BME280;28369;44.046;23.014;2023-05-31T10:08:28;101215.28;;;40.21;27.16
42725;BME280;28369;44.046;23.014;2023-05-31T10:10:57;101212.78;;;40.83;26.41
42725;BME280;28369;44.046;23.014;2023-05-31T10:13:24;101207.03;;;39.90;26.02
42725;BME280;28369;44.046;23.014;2023-05-31T10:15:57;101137.75;;;40.28;26.33
42725;BME280;28369;44.046;23.014;2023-05-31T10:18:27;101221.13;;;41.00;25.60
42725;BME280;28369;44.046;23.014;2023-05-31T10:21:24;101156.88;;;40.73;25.92
42725;BME280;28369;44.046;23.014;2023-05-31T10:23:57;101219.88;;;40.66;27.38
42725;BME280;28369;44.046;23.014;2023-05-31T10:26:36;101204.09;;;40.98;25.77
42725;BME280;28369;44.046;23.014;2023-05-31T10:29:19;101205.56;;;41.31;25.40
42725;BME280;28369;44.046;23.014;2023-05-31T10:31:51;101182.53;;;41.70;25.39
42725;BME280;28369;44.046;23.014;2023-05-31T10:34:23;101208.00;;;41.58;25.32
42725;BME280;28369;44.046;23.014;2023-05-31T10:36:54;101138.72;;;40.81;24.96
42725;BME280;28369;44.046;23.014;2023-05-31T10:39:34;101168.38;;;40.84;25.50
42725;BME280;28369;44.046;23.014;2023-05-31T10:42:14;101208.00;;;41.23;25.22
42725;BME280;28369;44.046;23.014;2023-05-31T10:44:48;101188.38;;;41.16;24.98
42725;BME280;28369;44.046;23.014;2023-05-31T10:47:20;101193.56;;;41.00;24.90
42725;BME280;28369;44.046;23.014;2023-05-31T10:49:52;101199.22;;;41.13;23.85
42725;BME280;28369;44.046;23.014;2023-05-31T10:52:19;101179.00;;;41.17;24.45
42725;BME280;28369;44.046;23.014;2023-05-31T10:54:45;101165.81;;;41.05;25.19
42725;BME280;28369;44.046;23.014;2023-05-31T10:57:12;101166.84;;;41.44;25.14
42725;BME280;28369;44.046;23.014;2023-05-31T10:59:42;101170.06;;;41.20;24.11
42725;BME280;28369;44.046;23.014;2023-05-31T11:02:10;101160.16;;;41.10;23.88
42725;BME280;28369;44.046;23.014;2023-05-31T11:04:35;101181.09;;;41.29;23.83
42725;BME280;28369;44.046;23.014;2023-05-31T11:07:12;101155.63;;;41.41;24.04
42725;BME280;28369;44.046;23.014;2023-05-31T11:09:40;101173.13;;;41.10;24.06
42725;BME280;28369;44.046;23.014;2023-05-31T11:12:06;101163.09;;;41.40;24.08
42725;BME280;28369;44.046;23.014;2023-05-31T11:14:32;101178.16;;;41.60;24.09
42725;BME280;28369;44.046;23.014;2023-05-31T11:19:29;101174.44;;;42.12;23.89
42725;BME280;28369;44.046;23.014;2023-05-31T11:24:39;101054.06;;;41.25;22.55
42725;BME280;28369;44.046;23.014;2023-05-31T11:27:34;101151.94;;;42.02;23.71
42725;BME280;28369;44.046;23.014;2023-05-31T11:30:00;101147.00;;;41.77;23.69
42725;BME280;28369;44.046;23.014;2023-05-31T11:35:15;101150.50;;;41.87;23.22
42725;BME280;28369;44.046;23.014;2023-05-31T11:37:41;101063.19;;;41.17;23.64
42725;BME280;28369;44.046;23.014;2023-05-31T11:40:09;101161.28;;;41.27;23.57
42725;BME280;28369;44.046;23.014;2023-05-31T11:42:40;101127.91;;;41.02;23.62
42725;BME280;28369;44.046;23.014;2023-05-31T11:45:14;101149.72;;;41.86;22.80
42725;BME280;28369;44.046;23.014;2023-05-31T11:50:33;101161.59;;;42.55;22.36
42725;BME280;28369;44.046;23.014;2023-05-31T11:53:02;101156.97;;;42.38;22.55
42725;BME280;28369;44.046;23.014;2023-05-31T11:55:32;101148.63;;;42.47;21.92
42725;BME280;28369;44.046;23.014;2023-05-31T11:58:06;101163.59;;;42.07;21.45
42725;BME280;28369;44.046;23.014;2023-05-31T12:00:33;101140.13;;;41.75;22.62
42725;BME280;28369;44.046;23.014;2023-05-31T12:02:58;101147.72;;;42.34;22.36
42725;BME280;28369;44.046;23.014;2023-05-31T12:05:28;101127.97;;;41.85;22.52
42725;BME280;28369;44.046;23.014;2023-05-31T12:07:55;101147.28;;;41.85;21.43
42725;BME280;28369;44.046;23.014;2023-05-31T12:10:24;101146.69;;;41.61;22.04
42725;BME280;28369;44.046;23.014;2023-05-31T12:12:50;101142.50;;;41.11;22.62
42725;BME280;28369;44.046;23.014;2023-05-31T12:15:16;101079.88;;;40.77;22.10
42725;BME280;28369;44.046;23.014;2023-05-31T12:17:42;101049.25;;;41.05;22.48
42725;BME280;28369;44.046;23.014;2023-05-31T12:20:08;101133.50;;;41.85;21.82
42725;BME280;28369;44.046;23.014;2023-05-31T12:22:34;101118.97;;;41.40;21.71
42725;BME280;28369;44.046;23.014;2023-05-31T12:25:00;101109.88;;;41.22;22.04
42725;BME280;28369;44.046;23.014;2023-05-31T12:27:27;101143.75;;;40.79;23.01
42725;BME280;28369;44.046;23.014;2023-05-31T12:30:01;101130.59;;;41.63;22.46
42725;BME280;28369;44.046;23.014;2023-05-31T12:32:27;101129.41;;;41.91;22.39
42725;BME280;28369;44.046;23.014;2023-05-31T12:35:07;100996.25;;;40.82;22.45
42725;BME280;28369;44.046;23.014;2023-05-31T12:37:37;101117.59;;;42.11;21.56
42725;BME280;28369;44.046;23.014;2023-05-31T12:40:16;101093.56;;;41.82;22.64
42725;BME280;28369;44.046;23.014;2023-05-31T12:42:45;101128.53;;;41.52;22.30
42725;BME280;28369;44.046;23.014;2023-05-31T12:45:11;101125.94;;;41.47;22.67
42725;BME280;28369;44.046;23.014;2023-05-31T12:47:37;101134.47;;;41.80;21.62
42725;BME280;28369;44.046;23.014;2023-05-31T12:50:06;101029.59;;;41.24;22.23
42725;BME280;28369;44.046;23.014;2023-05-31T12:52:37;101123.41;;;41.89;21.87